METAR AND TAF INFORMATION
METAR FOR LIRU
ADDS - METARS form results

(2150 UTC 18 January 2020)
Data provider http://aviationweather.gov/metar/data/
 
Forecast for: LIRU (ROME/URBE (IT-AF, IT)
Text: TAF LIRU 181400Z 1815/1824 VRB05KT 7000 SCT020
Forecast period: 1500 UTC 18 January 2020 to 0000 UTC 19 January 2020
Forecast type: FROM: standard forecast or significant change
Winds: variable direction winds at 6 MPH (5 knots; 2.6 m/s)
Visibility: 4 miles (7 km)
Ceiling: at least 12,000 feet AGL
Clouds: scattered clouds at 2000 feet AGL
Weather: no significant weather forecast for this period
Text: TEMPO 1815/1818 RA
Forecast period: 1500 to 1800 UTC 18 January 2020
Forecast type: TEMPORARY: The following changes expected for less than half the time period
Visibility: missing
Ceiling: unknown
Clouds: missing
Weather: RA  (moderate rain)

 AIRPORT MAP

 RUNWAY INFORMATION
Runway 16 Runway length 3543 ft Runway width 98 ft
Runway elevation 55 ft Runway displaced threshold 361 ft Runway heading 160
Runway 34 Runway length 3543 ft Runway width 98 ft
Runway elevation 55 ft Runway displaced threshold 820 ft Runway heading 340

 AIRPORT FREQUENCIES
Type GND Name GND Frequency 122.7 MHZ
Type TWR Name TWR Frequency 123.8 MHZ

 AIRPORT NEAR NAVIGATION AIDS
Type NDB Name Urbe Frequency 285 KHZ



Powered by Virtual Airlines Manager [v2.6.2]